Nezah, Canada
Current Conditions -  °F | °C
As of 6:00 PM on Wednesday 22 Oct 2014 (Local Time) from CYGQ Reporting Station
Few Clouds Few Clouds  
Wind Chill: 39°   Ceiling: Unl
Heat Index: 45°   Visibility: 15mi
Dew Point: 34°   Wind: 12mph
Humidity: 66%   Direction: 190°S
Pressure: 30.18"   Gusts: NA
Location:  49.66°N, 87.68°W
Report Text: CYGQ 222200Z 19010KT 15SM FEW250 07/01 A3018 RMK CI2 SLP239
Loading
Personal Weather Stations






























Interactive Weather Map
Tropical Storm Tracking
New forecast layout! Learn more

10-Day Weather Forecast

Advertisements
Track Severe Weather on mobile